Time;durP1;ratioP1;P1;durP2;ratioP2;P2;SDS_P1;SDS_P2;PMS_P1;PMS_P2;Temp;Humidity;BMP_temperature;BMP_pressure;BME280_temperature;BME280_humidity;BME280_pressure;Samples;Min_cycle;Max_cycle;Signal;HPM_P1;HPM_P2
2021/05/04 00:01:33;;;;;;;5.93;3.72;;;;;;;;;;4983312;28;20195;-70
2021/05/04 00:03:58;;;;;;;6.28;3.40;;;;;;;;;;4989756;28;20258;-71
2021/05/04 00:06:24;;;;;;;5.63;3.25;;;;;;;;;;4987703;28;20793;-70
2021/05/04 00:08:49;;;;;;;8.80;3.28;;;;;;;;;;4992998;28;20647;-69
2021/05/04 00:11:14;;;;;;;5.80;3.47;;;;;;;;;;5000683;28;20199;-70
2021/05/04 00:13:40;;;;;;;6.15;3.03;;;;;;;;;;4990257;28;20204;-70
2021/05/04 00:16:05;;;;;;;8.45;2.95;;;;;;;;;;4988555;28;20197;-70
2021/05/04 00:18:31;;;;;;;9.88;3.58;;;;;;;;;;4985031;28;20184;-70
2021/05/04 00:20:56;;;;;;;4.35;2.95;;;;;;;;;;4995358;28;20191;-71
2021/05/04 00:23:22;;;;;;;8.63;3.42;;;;;;;;;;4985729;28;20188;-70
2021/05/04 00:25:47;;;;;;;5.10;3.10;;;;;;;;;;4995987;28;20241;-70
2021/05/04 00:28:12;;;;;;;6.82;2.92;;;;;;;;;;4983694;28;20270;-68
2021/05/04 00:30:38;;;;;;;5.70;3.10;;;;;;;;;;4991419;28;20262;-70
2021/05/04 00:33:03;;;;;;;7.60;2.70;;;;;;;;;;4982950;28;20647;-70
2021/05/04 00:35:28;;;;;;;5.65;3.20;;;;;;;;;;4996577;28;20210;-70
2021/05/04 00:37:54;;;;;;;8.65;3.28;;;;;;;;;;5002124;28;20188;-70
2021/05/04 00:40:19;;;;;;;7.20;2.83;;;;;;;;;;4983898;28;20191;-68
2021/05/04 00:42:45;;;;;;;4.85;2.83;;;;;;;;;;4993695;28;20214;-69
2021/05/04 00:45:10;;;;;;;8.48;3.08;;;;;;;;;;4987433;28;20199;-69
2021/05/04 00:47:36;;;;;;;5.47;3.10;;;;;;;;;;4994578;28;20221;-68
2021/05/04 00:50:03;;;;;;;6.47;2.58;;;;;;;;;;4982223;28;20223;-70
2021/05/04 00:52:28;;;;;;;6.70;3.38;;;;;;;;;;4990877;28;20191;-69
2021/05/04 00:54:54;;;;;;;6.55;3.10;;;;;;;;;;4982755;28;20681;-70
2021/05/04 00:57:20;;;;;;;6.45;3.28;;;;;;;;;;4986720;28;20688;-70
2021/05/04 00:59:47;;;;;;;5.82;2.83;;;;;;;;;;4992443;28;20217;-69
2021/05/04 01:02:12;;;;;;;4.93;2.75;;;;;;;;;;4994025;28;20245;-70
2021/05/04 01:04:39;;;;;;;5.70;3.17;;;;;;;;;;4987324;28;20195;-69
2021/05/04 01:07:05;;;;;;;4.47;2.80;;;;;;;;;;4992010;28;20215;-70
2021/05/04 01:09:30;;;;;;;5.80;3.00;;;;;;;;;;4999833;28;20182;-67
2021/05/04 01:11:56;;;;;;;3.65;2.60;;;;;;;;;;4983788;28;20188;-69
2021/05/04 01:14:23;;;;;;;10.13;3.30;;;;;;;;;;4993530;28;20190;-70
2021/05/04 01:16:54;;;;;;;4.85;2.67;;;;;;;;;;4981878;28;20191;-69
2021/05/04 01:19:20;;;;;;;3.72;2.60;;;;;;;;;;4994405;28;20171;-69
2021/05/04 01:21:45;;;;;;;4.57;3.20;;;;;;;;;;4984772;28;20186;-69
2021/05/04 01:24:12;;;;;;;6.88;2.97;;;;;;;;;;4995194;28;20202;-70
2021/05/04 01:26:41;;;;;;;4.05;2.53;;;;;;;;;;4981861;28;20678;-70
2021/05/04 01:29:06;;;;;;;3.42;2.72;;;;;;;;;;5000034;28;20253;-71
2021/05/04 01:31:32;;;;;;;4.07;3.05;;;;;;;;;;4986883;28;20302;-70
2021/05/04 01:33:57;;;;;;;5.57;3.47;;;;;;;;;;4995455;28;20174;-71
2021/05/04 01:36:23;;;;;;;4.35;2.78;;;;;;;;;;4983038;28;20460;-71
2021/05/04 01:38:48;;;;;;;3.40;3.00;;;;;;;;;;4992549;28;20191;-71
2021/05/04 01:41:14;;;;;;;4.38;3.20;;;;;;;;;;4978043;28;20631;-71
2021/05/04 01:43:39;;;;;;;7.20;2.90;;;;;;;;;;4991867;28;20201;-71
2021/05/04 01:46:05;;;;;;;5.32;3.25;;;;;;;;;;4999881;28;20179;-71
2021/05/04 01:48:30;;;;;;;8.80;3.78;;;;;;;;;;4985173;28;20223;-71
2021/05/04 01:50:55;;;;;;;6.78;3.10;;;;;;;;;;4996547;28;20200;-71
2021/05/04 01:53:21;;;;;;;6.63;3.05;;;;;;;;;;4983486;28;20186;-72
2021/05/04 01:55:46;;;;;;;6.00;3.28;;;;;;;;;;5011733;28;20257;-72
2021/05/04 01:58:12;;;;;;;5.88;2.92;;;;;;;;;;4984218;28;20194;-71
2021/05/04 02:00:37;;;;;;;7.88;2.85;;;;;;;;;;5001429;28;20217;-69
2021/05/04 02:03:03;;;;;;;7.88;3.08;;;;;;;;;;4981829;28;20211;-71
2021/05/04 02:05:28;;;;;;;4.40;3.15;;;;;;;;;;4989737;28;20195;-70
2021/05/04 02:07:53;;;;;;;6.53;3.00;;;;;;;;;;4982475;28;20668;-71
2021/05/04 02:10:19;;;;;;;5.10;2.60;;;;;;;;;;4991477;28;20203;-71
2021/05/04 02:12:44;;;;;;;5.13;2.80;;;;;;;;;;4986171;28;20175;-71
2021/05/04 02:15:10;;;;;;;7.00;2.75;;;;;;;;;;4993244;28;20211;-71
2021/05/04 02:17:36;;;;;;;6.13;2.97;;;;;;;;;;4991341;28;20290;-71
2021/05/04 02:20:03;;;;;;;6.70;3.25;;;;;;;;;;4987970;28;20560;-71
2021/05/04 02:22:28;;;;;;;8.90;3.08;;;;;;;;;;4989872;28;20187;-70
2021/05/04 02:24:53;;;;;;;6.95;3.25;;;;;;;;;;4988041;28;20677;-70
2021/05/04 02:27:19;;;;;;;6.35;3.13;;;;;;;;;;4993557;28;20261;-71
2021/05/04 02:29:44;;;;;;;5.22;3.17;;;;;;;;;;4991172;28;20207;-70
2021/05/04 02:32:10;;;;;;;6.28;3.13;;;;;;;;;;4993371;28;20179;-71
2021/05/04 02:34:36;;;;;;;4.65;3.05;;;;;;;;;;4992988;28;20182;-73
2021/05/04 02:37:01;;;;;;;7.45;3.40;;;;;;;;;;4994018;28;20194;-72
2021/05/04 02:39:27;;;;;;;5.68;3.20;;;;;;;;;;4989919;28;20262;-72
2021/05/04 02:41:52;;;;;;;8.57;3.15;;;;;;;;;;4993601;28;20191;-71
2021/05/04 02:44:17;;;;;;;7.72;3.95;;;;;;;;;;4996523;28;20175;-71
2021/05/04 02:46:43;;;;;;;5.05;2.67;;;;;;;;;;4994373;28;20203;-71
2021/05/04 02:49:08;;;;;;;5.82;3.40;;;;;;;;;;4992244;28;20231;-72
2021/05/04 02:51:33;;;;;;;5.90;4.10;;;;;;;;;;4985813;28;20198;-72
2021/05/04 02:53:59;;;;;;;8.70;3.42;;;;;;;;;;5002722;28;20183;-71
2021/05/04 02:56:25;;;;;;;4.22;3.22;;;;;;;;;;4988655;28;20195;-70
2021/05/04 02:58:51;;;;;;;5.20;4.10;;;;;;;;;;5003356;28;20173;-71
2021/05/04 03:01:16;;;;;;;6.38;3.50;;;;;;;;;;4983423;28;20190;-71
2021/05/04 03:03:41;;;;;;;6.97;3.45;;;;;;;;;;5004596;28;20570;-71
2021/05/04 03:06:07;;;;;;;9.15;3.65;;;;;;;;;;4987271;28;20540;-72
2021/05/04 03:08:32;;;;;;;7.47;3.40;;;;;;;;;;4994009;28;20210;-71
2021/05/04 03:10:58;;;;;;;5.55;3.28;;;;;;;;;;4985012;28;20321;-70
2021/05/04 03:13:29;;;;;;;4.03;2.80;;;;;;;;;;4999271;28;20341;-71
2021/05/04 03:15:55;;;;;;;5.93;3.70;;;;;;;;;;4984106;28;20607;-70
2021/05/04 03:18:21;;;;;;;5.72;3.45;;;;;;;;;;4997125;28;20172;-70
2021/05/04 03:20:48;;;;;;;5.28;3.35;;;;;;;;;;4998780;28;20187;-69
2021/05/04 03:23:14;;;;;;;6.50;3.88;;;;;;;;;;4985011;28;20257;-71
2021/05/04 03:25:41;;;;;;;5.78;3.97;;;;;;;;;;5000769;28;20290;-70
2021/05/04 03:28:08;;;;;;;8.15;3.97;;;;;;;;;;4984030;28;20670;-69
2021/05/04 03:30:33;;;;;;;6.38;4.13;;;;;;;;;;4991629;28;20191;-71
2021/05/04 03:32:59;;;;;;;5.85;3.50;;;;;;;;;;4986310;28;20661;-71
2021/05/04 03:35:24;;;;;;;8.52;3.85;;;;;;;;;;4999426;28;20673;-70
2021/05/04 03:37:49;;;;;;;6.18;4.10;;;;;;;;;;4990483;28;20316;-71
2021/05/04 03:40:16;;;;;;;7.50;3.97;;;;;;;;;;4996062;28;20241;-71
2021/05/04 03:42:41;;;;;;;5.28;3.38;;;;;;;;;;4989192;28;20587;-70
2021/05/04 03:45:07;;;;;;;6.38;3.70;;;;;;;;;;4997832;28;20188;-70
2021/05/04 03:47:36;;;;;;;6.80;4.15;;;;;;;;;;4991054;28;20208;-70
2021/05/04 03:50:02;;;;;;;9.23;4.63;;;;;;;;;;4997557;28;20294;-70
2021/05/04 03:52:27;;;;;;;6.13;3.65;;;;;;;;;;4988891;28;20186;-71
2021/05/04 03:54:53;;;;;;;6.35;3.58;;;;;;;;;;4997343;28;20199;-71
2021/05/04 03:57:18;;;;;;;3.42;3.08;;;;;;;;;;4996140;28;20176;-71
2021/05/04 03:59:43;;;;;;;6.60;3.85;;;;;;;;;;4987754;28;20667;-70
2021/05/04 04:02:09;;;;;;;4.07;3.67;;;;;;;;;;4993765;28;20203;-70
2021/05/04 04:04:34;;;;;;;6.63;5.10;;;;;;;;;;4982230;28;20183;-70
2021/05/04 04:06:59;;;;;;;5.68;4.30;;;;;;;;;;4992439;28;20215;-71
2021/05/04 04:09:24;;;;;;;7.82;4.53;;;;;;;;;;4986315;28;20194;-70
2021/05/04 04:11:50;;;;;;;7.82;3.83;;;;;;;;;;4993948;28;20575;-70
2021/05/04 04:14:15;;;;;;;5.60;4.53;;;;;;;;;;4992730;28;20726;-70
2021/05/04 04:16:41;;;;;;;7.43;4.53;;;;;;;;;;4992069;28;20585;-71
2021/05/04 04:19:08;;;;;;;6.72;4.18;;;;;;;;;;4985594;28;20671;-70
2021/05/04 04:21:34;;;;;;;8.20;5.30;;;;;;;;;;4993182;28;20183;-68
2021/05/04 04:23:59;;;;;;;10.37;4.27;;;;;;;;;;5002662;28;20171;-70
2021/05/04 04:26:24;;;;;;;7.47;4.57;;;;;;;;;;4984619;28;20178;-72
2021/05/04 04:28:50;;;;;;;7.00;3.80;;;;;;;;;;4997927;28;20199;-68
2021/05/04 04:31:15;;;;;;;6.15;4.28;;;;;;;;;;4987159;28;20220;-70
2021/05/04 04:33:40;;;;;;;6.07;3.85;;;;;;;;;;4996447;28;20647;-69
2021/05/04 04:36:06;;;;;;;6.17;4.13;;;;;;;;;;4983247;28;20281;-70
2021/05/04 04:38:31;;;;;;;5.03;3.75;;;;;;;;;;4994983;28;20635;-70
2021/05/04 04:40:57;;;;;;;4.47;3.67;;;;;;;;;;4984216;28;20190;-70
2021/05/04 04:43:23;;;;;;;5.25;3.85;;;;;;;;;;4997696;28;20197;-70
2021/05/04 04:45:48;;;;;;;6.33;3.83;;;;;;;;;;4983876;28;20241;-71
2021/05/04 04:48:13;;;;;;;7.13;3.90;;;;;;;;;;4992461;28;20209;-70
2021/05/04 04:50:39;;;;;;;6.13;4.43;;;;;;;;;;4982370;28;20242;-70
2021/05/04 04:53:04;;;;;;;4.33;3.67;;;;;;;;;;4994249;28;20191;-71
2021/05/04 04:55:29;;;;;;;5.07;3.92;;;;;;;;;;4991711;28;20187;-71
2021/05/04 04:57:55;;;;;;;6.60;3.97;;;;;;;;;;4984970;28;20658;-73
2021/05/04 05:00:20;;;;;;;6.15;3.28;;;;;;;;;;4997013;28;20198;-73
2021/05/04 05:02:46;;;;;;;5.00;3.53;;;;;;;;;;4985391;28;20231;-72
2021/05/04 05:05:12;;;;;;;5.63;4.33;;;;;;;;;;4992220;28;20791;-72
2021/05/04 05:07:37;;;;;;;5.93;4.23;;;;;;;;;;4982803;28;20294;-70
2021/05/04 05:10:03;;;;;;;5.67;3.83;;;;;;;;;;4993397;28;20275;-72
2021/05/04 05:12:28;;;;;;;7.10;4.23;;;;;;;;;;4984376;28;20179;-70
2021/05/04 05:14:54;;;;;;;4.70;4.23;;;;;;;;;;4990238;28;20203;-71
2021/05/04 05:17:20;;;;;;;4.50;3.70;;;;;;;;;;4982608;28;20598;-72
2021/05/04 05:19:46;;;;;;;5.33;3.67;;;;;;;;;;4997478;28;20558;-72
2021/05/04 05:22:11;;;;;;;6.17;4.10;;;;;;;;;;4987126;28;20790;-73
2021/05/04 05:24:38;;;;;;;6.53;3.50;;;;;;;;;;4994917;28;20232;-72
2021/05/04 05:27:04;;;;;;;4.57;3.00;;;;;;;;;;4992401;28;20187;-72
2021/05/04 05:29:31;;;;;;;3.73;3.20;;;;;;;;;;4981113;28;20199;-71
2021/05/04 05:31:56;;;;;;;3.53;3.23;;;;;;;;;;4997268;28;20654;-73
2021/05/04 05:34:22;;;;;;;3.73;3.13;;;;;;;;;;4983637;28;20195;-72
2021/05/04 05:36:47;;;;;;;3.30;3.00;;;;;;;;;;4992375;28;20248;-72
2021/05/04 05:39:12;;;;;;;3.93;3.47;;;;;;;;;;4983690;28;20188;-72
2021/05/04 05:41:38;;;;;;;5.83;3.67;;;;;;;;;;4995162;28;20556;-71
2021/05/04 05:44:04;;;;;;;7.07;3.73;;;;;;;;;;4988898;28;20183;-70
2021/05/04 05:46:30;;;;;;;4.13;3.43;;;;;;;;;;4994027;28;20187;-70
2021/05/04 05:48:57;;;;;;;5.40;3.50;;;;;;;;;;4985061;28;20721;-71
2021/05/04 05:51:23;;;;;;;6.43;3.20;;;;;;;;;;4995465;28;20520;-70
2021/05/04 05:53:48;;;;;;;5.50;3.30;;;;;;;;;;4985910;28;20210;-71
2021/05/04 05:56:14;;;;;;;4.27;3.00;;;;;;;;;;4990778;28;20670;-71
2021/05/04 05:58:39;;;;;;;3.87;3.30;;;;;;;;;;4993757;28;20191;-72
2021/05/04 06:01:04;;;;;;;6.77;3.60;;;;;;;;;;4988291;28;20183;-70
2021/05/04 06:03:30;;;;;;;4.93;3.23;;;;;;;;;;5004533;28;20206;-70
2021/05/04 06:05:56;;;;;;;8.77;4.07;;;;;;;;;;4987688;28;20186;-71
2021/05/04 06:08:23;;;;;;;9.80;3.53;;;;;;;;;;4997771;28;20203;-70
2021/05/04 06:10:48;;;;;;;5.87;3.43;;;;;;;;;;4988427;28;20528;-70
2021/05/04 06:13:14;;;;;;;4.60;3.53;;;;;;;;;;5001239;28;20187;-71
2021/05/04 06:15:40;;;;;;;5.93;3.27;;;;;;;;;;4989801;28;20289;-70
2021/05/04 06:18:06;;;;;;;5.53;3.33;;;;;;;;;;4995590;28;20214;-71
2021/05/04 06:20:31;;;;;;;4.87;3.40;;;;;;;;;;5003980;28;20187;-73
2021/05/04 06:22:57;;;;;;;6.57;3.87;;;;;;;;;;5001410;28;20553;-72
2021/05/04 06:25:22;;;;;;;6.27;3.50;;;;;;;;;;4987898;28;20198;-73
2021/05/04 06:27:48;;;;;;;5.00;3.90;;;;;;;;;;5001890;28;20550;-73
2021/05/04 06:30:14;;;;;;;5.63;3.60;;;;;;;;;;5003267;28;20202;-73
2021/05/04 06:32:40;;;;;;;7.40;3.77;;;;;;;;;;4998314;28;20197;-73
2021/05/04 06:35:07;;;;;;;8.15;3.88;;;;;;;;;;4996869;28;20191;-70
2021/05/04 06:37:33;;;;;;;4.33;3.40;;;;;;;;;;4988119;28;20618;-70
2021/05/04 06:39:58;;;;;;;11.27;4.40;;;;;;;;;;4996499;28;20266;-72
2021/05/04 06:42:23;;;;;;;4.93;3.85;;;;;;;;;;4988961;28;20199;-71
2021/05/04 06:44:49;;;;;;;5.03;2.90;;;;;;;;;;4992738;28;20186;-72
2021/05/04 06:47:14;;;;;;;4.53;3.10;;;;;;;;;;4303374;28;10000853;-72
2021/05/04 06:49:41;;;;;;;4.25;3.20;;;;;;;;;;4989689;28;21877;-70
2021/05/04 06:52:06;;;;;;;11.67;3.47;;;;;;;;;;4987469;28;20201;-70
2021/05/04 06:54:32;;;;;;;7.70;3.10;;;;;;;;;;4995119;28;20195;-71
2021/05/04 06:56:58;;;;;;;7.13;3.20;;;;;;;;;;4983292;28;20191;-71
2021/05/04 06:59:23;;;;;;;9.80;3.37;;;;;;;;;;4992254;28;20298;-72
2021/05/04 07:01:48;;;;;;;6.00;1.60;;;;;;;;;;4981449;28;20203;-73
2021/05/04 07:04:15;;;;;;;3.90;1.13;;;;;;;;;;4981891;28;20206;-73
2021/05/04 07:06:40;;;;;;;3.13;1.30;;;;;;;;;;4994243;28;20179;-71
2021/05/04 07:09:06;;;;;;;5.37;1.37;;;;;;;;;;4978720;28;20195;-73
2021/05/04 07:11:34;;;;;;;5.57;1.73;;;;;;;;;;4992965;28;20175;-72
2021/05/04 07:14:02;;;;;;;4.70;1.80;;;;;;;;;;4979412;28;20190;-70
2021/05/04 07:16:27;;;;;;;4.13;1.17;;;;;;;;;;4989233;28;20187;-72
2021/05/04 07:18:53;;;;;;;3.80;0.97;;;;;;;;;;4981406;28;20596;-70
2021/05/04 07:21:18;;;;;;;4.83;1.10;;;;;;;;;;4988669;28;20187;-71
2021/05/04 07:23:43;;;;;;;5.80;1.73;;;;;;;;;;4977315;28;20583;-70
2021/05/04 07:26:10;;;;;;;5.10;1.10;;;;;;;;;;4991427;28;20279;-70
2021/05/04 07:28:35;;;;;;;5.17;1.00;;;;;;;;;;4982673;28;20199;-70
2021/05/04 07:31:01;;;;;;;3.23;0.90;;;;;;;;;;4989710;28;20180;-69
2021/05/04 07:33:26;;;;;;;3.17;0.70;;;;;;;;;;4982455;28;20655;-71
2021/05/04 07:35:52;;;;;;;2.53;0.77;;;;;;;;;;4989953;28;20191;-69
2021/05/04 07:38:17;;;;;;;4.33;1.00;;;;;;;;;;4993072;28;20234;-69
2021/05/04 07:40:43;;;;;;;5.23;0.80;;;;;;;;;;4980904;28;20277;-69
2021/05/04 07:43:08;;;;;;;5.03;1.23;;;;;;;;;;4993712;28;20195;-69
2021/05/04 07:45:34;;;;;;;7.77;1.40;;;;;;;;;;4982736;28;20237;-69
2021/05/04 07:48:01;;;;;;;4.07;1.50;;;;;;;;;;4998557;28;20670;-69
2021/05/04 07:50:28;;;;;;;4.70;1.77;;;;;;;;;;4989881;28;20227;-68
2021/05/04 07:52:54;;;;;;;7.17;1.80;;;;;;;;;;4994478;28;20194;-68
2021/05/04 07:55:19;;;;;;;4.32;1.83;;;;;;;;;;4987473;28;20183;-68
2021/05/04 07:57:44;;;;;;;3.90;2.25;;;;;;;;;;5002216;28;20191;-68
2021/05/04 08:00:10;;;;;;;8.48;2.70;;;;;;;;;;4978521;28;20183;-68
2021/05/04 08:02:35;;;;;;;7.88;3.33;;;;;;;;;;4992091;28;20678;-69
2021/05/04 08:05:01;;;;;;;8.73;3.10;;;;;;;;;;4981420;28;20273;-68
2021/05/04 08:07:26;;;;;;;8.85;2.92;;;;;;;;;;4997568;28;20336;-68
2021/05/04 08:09:52;;;;;;;6.03;3.17;;;;;;;;;;4992086;28;20244;-67
2021/05/04 08:12:17;;;;;;;8.82;3.40;;;;;;;;;;4989906;28;20237;-68
2021/05/04 08:14:44;;;;;;;11.18;2.97;;;;;;;;;;4993659;28;20179;-69
2021/05/04 08:17:16;;;;;;;11.32;3.20;;;;;;;;;;4991841;28;20682;-68
2021/05/04 08:19:42;;;;;;;11.07;2.63;;;;;;;;;;4989767;28;20213;-69
2021/05/04 08:22:07;;;;;;;10.00;3.17;;;;;;;;;;4981499;28;20191;-70
2021/05/04 08:24:33;;;;;;;10.43;3.00;;;;;;;;;;4990908;28;20191;-69
2021/05/04 08:26:59;;;;;;;10.48;3.10;;;;;;;;;;4990356;28;20587;-69
2021/05/04 08:29:24;;;;;;;7.68;2.67;;;;;;;;;;4993311;28;20282;-69
2021/05/04 08:31:50;;;;;;;10.25;3.22;;;;;;;;;;4982024;28;20274;-70
2021/05/04 08:34:15;;;;;;;5.75;2.33;;;;;;;;;;4990016;28;20283;-69
2021/05/04 08:36:41;;;;;;;11.77;3.00;;;;;;;;;;4987575;28;20547;-69
2021/05/04 08:39:06;;;;;;;8.80;2.92;;;;;;;;;;4991536;28;20322;-69
2021/05/04 08:41:39;;;;;;;12.57;2.58;;;;;;;;;;5054929;27;20950;-69
2021/05/04 08:44:05;;;;;;;5.25;2.70;;;;;;;;;;5057752;28;20225;-68
2021/05/04 08:46:34;;;;;;;5.07;2.30;;;;;;;;;;5060875;28;20305;-67
2021/05/04 08:49:02;;;;;;;7.70;2.13;;;;;;;;;;5074123;28;20612;-67
2021/05/04 08:51:28;;;;;;;6.70;2.08;;;;;;;;;;5057659;28;20180;-68
2021/05/04 08:53:53;;;;;;;4.80;1.70;;;;;;;;;;4698991;27;9999937;-68
2021/05/04 08:56:19;;;;;;;5.50;1.60;;;;;;;;;;5051642;28;20188;-65
2021/05/04 08:58:44;;;;;;;4.45;1.70;;;;;;;;;;5046514;28;20190;-73
2021/05/04 09:01:10;;;;;;;5.82;1.45;;;;;;;;;;5054193;28;20200;-68
2021/05/04 09:06:06;;;;;;;7.53;1.85;;;;;;;;;;5047176;28;20189;-69
2021/05/04 09:08:42;;;;;;;6.97;1.88;;;;;;;;;;5040351;28;20199;-69
2021/05/04 09:11:32;;;;;;;7.93;1.92;;;;;;;;;;5057070;28;20346;-69
2021/05/04 09:21:34;;;;;;;8.00;2.38;;;;;;;;;;5044238;28;20224;-67
2021/05/04 09:24:25;;;;;;;7.25;2.28;;;;;;;;;;5041387;28;20622;-68
2021/05/04 09:27:05;;;;;;;8.00;2.33;;;;;;;;;;5048028;28;20832;-68
2021/05/04 09:29:37;;;;;;;4.55;2.10;;;;;;;;;;5044930;28;20234;-68
2021/05/04 09:32:23;;;;;;;5.15;2.33;;;;;;;;;;5049500;28;20208;-70
2021/05/04 09:35:05;;;;;;;9.48;2.45;;;;;;;;;;5043611;28;20192;-68
2021/05/04 09:37:36;;;;;;;9.48;2.40;;;;;;;;;;5057656;28;20688;-70
2021/05/04 09:40:26;;;;;;;10.23;2.55;;;;;;;;;;5046078;28;20255;-68
2021/05/04 09:43:02;;;;;;;6.28;2.42;;;;;;;;;;5047921;28;20222;-67
2021/05/04 09:45:28;;;;;;;11.60;2.92;;;;;;;;;;5036678;28;20669;-68
2021/05/04 09:48:14;;;;;;;6.50;2.70;;;;;;;;;;5051911;28;20576;-69
2021/05/04 09:51:04;;;;;;;12.40;3.22;;;;;;;;;;5044997;28;20196;-68
2021/05/04 09:53:44;;;;;;;11.32;3.08;;;;;;;;;;5038393;28;20197;-69
2021/05/04 09:56:12;;;;;;;12.85;3.60;;;;;;;;;;5031946;28;20276;-69
2021/05/04 09:58:45;;;;;;;12.30;3.65;;;;;;;;;;5037312;28;20721;-69
2021/05/04 10:01:13;;;;;;;11.55;4.25;;;;;;;;;;5034908;28;20295;-68
2021/05/04 10:03:40;;;;;;;12.07;3.80;;;;;;;;;;5038031;28;20213;-69
2021/05/04 10:06:08;;;;;;;10.88;4.03;;;;;;;;;;5020603;28;20273;-70
2021/05/04 10:08:35;;;;;;;8.75;3.58;;;;;;;;;;5042363;28;20273;-70
2021/05/04 10:11:03;;;;;;;6.80;2.95;;;;;;;;;;5039481;28;20518;-69
2021/05/04 10:13:29;;;;;;;10.68;3.78;;;;;;;;;;5026677;28;20211;-70
2021/05/04 10:15:56;;;;;;;11.73;3.70;;;;;;;;;;5041340;28;20276;-69
2021/05/04 10:18:22;;;;;;;8.55;3.72;;;;;;;;;;5032180;28;20272;-69
2021/05/04 10:20:47;;;;;;;10.45;3.40;;;;;;;;;;5037783;28;20331;-69
2021/05/04 10:23:13;;;;;;;10.38;4.28;;;;;;;;;;5028766;28;20197;-69
2021/05/04 10:25:42;;;;;;;5.65;2.40;;;;;;;;;;5031896;28;20605;-69
2021/05/04 10:28:08;;;;;;;8.48;2.40;;;;;;;;;;5032405;28;20189;-70
2021/05/04 10:30:35;;;;;;;8.25;2.63;;;;;;;;;;5039314;28;20226;-69
2021/05/04 10:33:09;;;;;;;9.27;2.90;;;;;;;;;;5033033;28;20186;-69
2021/05/04 10:35:37;;;;;;;6.47;2.33;;;;;;;;;;5037030;28;20262;-69
2021/05/04 10:38:09;;;;;;;7.53;2.40;;;;;;;;;;5032082;28;20554;-68
2021/05/04 10:40:37;;;;;;;6.68;2.28;;;;;;;;;;5039074;28;20233;-68
2021/05/04 10:43:21;;;;;;;9.57;2.60;;;;;;;;;;5028226;28;20214;-67
2021/05/04 10:45:46;;;;;;;7.60;2.05;;;;;;;;;;5035368;28;20193;-69
2021/05/04 10:48:12;;;;;;;6.50;2.30;;;;;;;;;;5029475;28;20196;-68
2021/05/04 10:50:50;;;;;;;10.15;2.40;;;;;;;;;;5033650;28;20520;-69
2021/05/04 10:53:17;;;;;;;8.48;2.20;;;;;;;;;;4684703;28;10000163;-66
2021/05/04 10:55:56;;;;;;;13.95;2.75;;;;;;;;;;5022371;28;20189;-69
2021/05/04 10:58:26;;;;;;;8.40;3.20;;;;;;;;;;5034166;28;20193;-68
2021/05/04 11:00:58;;;;;;;8.00;2.25;;;;;;;;;;5028359;28;20561;-68
2021/05/04 11:03:29;;;;;;;3.30;1.13;;;;;;;;;;5037362;28;20213;-69
2021/05/04 11:05:58;;;;;;;4.80;1.38;;;;;;;;;;5034530;28;20243;-70
2021/05/04 11:08:24;;;;;;;5.45;1.35;;;;;;;;;;5035021;28;20295;-69
2021/05/04 11:11:29;;;;;;;8.63;1.42;;;;;;;;;;5030715;28;20292;-70
2021/05/04 11:13:59;;;;;;;5.43;1.30;;;;;;;;;;5033029;28;20193;-69
2021/05/04 11:16:47;;;;;;;5.82;1.92;;;;;;;;;;5031094;28;20676;-69
2021/05/04 11:19:31;;;;;;;5.82;1.35;;;;;;;;;;5032741;28;20197;-70
2021/05/04 11:21:59;;;;;;;5.07;1.60;;;;;;;;;;5021730;28;20201;-68
2021/05/04 11:24:33;;;;;;;6.00;1.40;;;;;;;;;;5032622;28;20194;-68
2021/05/04 11:27:00;;;;;;;6.35;1.60;;;;;;;;;;5031738;28;20660;-70
2021/05/04 11:29:31;;;;;;;11.70;1.80;;;;;;;;;;5037216;28;20300;-70
2021/05/04 11:32:12;;;;;;;13.23;2.17;;;;;;;;;;5030574;28;20684;-70
2021/05/04 11:34:53;;;;;;;6.63;1.60;;;;;;;;;;5032347;28;20273;-70
2021/05/04 11:37:19;;;;;;;7.32;1.70;;;;;;;;;;5024003;28;20625;-69
2021/05/04 11:40:02;;;;;;;6.13;1.38;;;;;;;;;;5029004;28;20265;-69
2021/05/04 11:42:35;;;;;;;4.65;1.00;;;;;;;;;;5025946;28;20197;-68
2021/05/04 11:45:08;;;;;;;5.78;1.00;;;;;;;;;;5033040;28;20197;-69
2021/05/04 11:47:34;;;;;;;8.00;1.25;;;;;;;;;;5030234;28;20197;-69
2021/05/04 11:50:11;;;;;;;6.85;0.98;;;;;;;;;;5036973;28;20642;-69
2021/05/04 11:52:38;;;;;;;6.20;1.20;;;;;;;;;;5034525;28;20235;-69
2021/05/04 11:55:11;;;;;;;6.85;1.00;;;;;;;;;;5032778;28;20209;-69
2021/05/04 11:57:38;;;;;;;5.47;0.98;;;;;;;;;;5027226;28;20193;-69
2021/05/04 12:00:24;;;;;;;7.43;1.38;;;;;;;;;;5036761;28;20198;-68
2021/05/04 12:02:50;;;;;;;5.15;0.95;;;;;;;;;;5028153;28;20205;-68
2021/05/04 12:05:28;;;;;;;6.10;1.15;;;;;;;;;;5029358;28;20182;-68
2021/05/04 12:07:54;;;;;;;4.43;1.02;;;;;;;;;;5024990;28;20203;-67
2021/05/04 12:10:22;;;;;;;7.85;1.10;;;;;;;;;;5033935;28;20288;-68
2021/05/04 12:13:04;;;;;;;6.85;1.30;;;;;;;;;;5027371;28;20224;-67
2021/05/04 12:15:35;;;;;;;4.53;1.20;;;;;;;;;;5034302;28;20252;-69
2021/05/04 12:18:31;;;;;;;7.07;1.63;;;;;;;;;;5031782;28;20672;-69
2021/05/04 12:20:59;;;;;;;4.13;0.80;;;;;;;;;;4679841;28;10000589;-69
2021/05/04 12:23:32;;;;;;;3.08;0.50;;;;;;;;;;5022489;28;20197;-69
2021/05/04 12:26:07;;;;;;;5.97;1.17;;;;;;;;;;5031818;28;20814;-68
2021/05/04 12:28:35;;;;;;;4.97;0.90;;;;;;;;;;5026598;28;20842;-67
2021/05/04 12:31:12;;;;;;;2.88;1.00;;;;;;;;;;5027586;28;20185;-69
2021/05/04 12:33:39;;;;;;;4.97;1.08;;;;;;;;;;5024286;28;20643;-68
2021/05/04 12:36:12;;;;;;;4.15;0.90;;;;;;;;;;5036991;28;20273;-68
2021/05/04 12:41:16;;;;;;;10.15;1.13;;;;;;;;;;5027703;28;20729;-69
2021/05/04 12:44:20;;;;;;;6.28;0.90;;;;;;;;;;5028422;28;20185;-68
2021/05/04 12:46:48;;;;;;;3.95;0.90;;;;;;;;;;5028602;28;20201;-68
2021/05/04 12:49:14;;;;;;;3.40;0.82;;;;;;;;;;5019855;28;20293;-69
2021/05/04 12:51:50;;;;;;;5.40;1.13;;;;;;;;;;5030968;28;20185;-69
2021/05/04 12:54:18;;;;;;;12.70;1.10;;;;;;;;;;5028146;28;20271;-69
2021/05/04 12:56:45;;;;;;;5.13;1.00;;;;;;;;;;5033459;28;20193;-68
2021/05/04 12:59:13;;;;;;;2.33;0.70;;;;;;;;;;5029464;28;20190;-68
2021/05/04 13:01:51;;;;;;;9.15;0.98;;;;;;;;;;5029853;28;20274;-69
2021/05/04 13:07:38;;;;;;;7.55;1.27;;;;;;;;;;5024181;28;20198;-68
2021/05/04 13:21:09;;;;;;;2.58;0.60;;;;;;;;;;5027778;28;20228;-68
2021/05/04 13:34:41;;;;;;;5.63;1.20;;;;;;;;;;5045165;28;20191;-67
2021/05/04 13:37:11;;;;;;;3.33;0.73;;;;;;;;;;5033581;28;20561;-67
2021/05/04 13:40:07;;;;;;;5.07;1.05;;;;;;;;;;5035400;28;20226;-68
2021/05/04 13:47:46;;;;;;;3.67;1.10;;;;;;;;;;5030524;28;20202;-69
2021/05/04 13:50:13;;;;;;;3.45;0.95;;;;;;;;;;5033389;28;20784;-69
2021/05/04 13:52:39;;;;;;;2.60;1.15;;;;;;;;;;5032487;28;20549;-68
2021/05/04 13:55:06;;;;;;;5.72;1.38;;;;;;;;;;5034844;28;20304;-69
2021/05/04 13:57:35;;;;;;;5.13;1.23;;;;;;;;;;5037356;28;20206;-69
2021/05/04 14:00:04;;;;;;;5.57;1.50;;;;;;;;;;5033094;28;20701;-69
2021/05/04 14:26:44;;;;;;;4.03;1.50;;;;;;;;;;5032778;28;20224;-69
2021/05/04 14:29:12;;;;;;;1.92;1.02;;;;;;;;;;5033352;28;20194;-68
2021/05/04 14:31:38;;;;;;;5.78;1.40;;;;;;;;;;5031533;28;20219;-67
2021/05/04 14:34:04;;;;;;;5.50;1.00;;;;;;;;;;5036336;28;20633;-68
2021/05/04 14:41:48;;;;;;;3.90;0.93;;;;;;;;;;5029398;28;20816;-68
2021/05/04 14:55:37;;;;;;;3.03;1.00;;;;;;;;;;5034165;28;20231;-68
2021/05/04 14:58:02;;;;;;;3.97;1.10;;;;;;;;;;5029287;28;20205;-68
2021/05/04 15:02:54;;;;;;;3.88;1.10;;;;;;;;;;5027634;28;20232;-69
2021/05/04 15:05:22;;;;;;;2.92;0.90;;;;;;;;;;5033799;28;20649;-70
2021/05/04 15:07:48;;;;;;;2.40;0.93;;;;;;;;;;4328205;28;10021542;-71
2021/05/04 15:10:14;;;;;;;2.63;0.80;;;;;;;;;;5030371;28;20216;-69
2021/05/04 15:12:41;;;;;;;2.92;0.70;;;;;;;;;;5026387;28;20189;-71
2021/05/04 15:15:12;;;;;;;1.77;0.80;;;;;;;;;;5029266;28;20194;-71
2021/05/04 15:22:51;;;;;;;2.43;0.87;;;;;;;;;;5021322;28;20201;-68
2021/05/04 15:25:16;;;;;;;2.30;0.70;;;;;;;;;;5032208;28;20216;-68
2021/05/04 15:27:42;;;;;;;2.35;0.85;;;;;;;;;;5025252;28;20181;-69
2021/05/04 15:30:08;;;;;;;1.13;0.80;;;;;;;;;;5027050;28;20251;-69
2021/05/04 15:32:44;;;;;;;0.88;0.88;;;;;;;;;;5027510;28;20229;-69
2021/05/04 15:35:10;;;;;;;2.28;0.93;;;;;;;;;;5030543;28;20221;-69
2021/05/04 15:37:35;;;;;;;3.05;1.63;;;;;;;;;;5031908;28;20607;-68
2021/05/04 15:40:01;;;;;;;3.40;1.33;;;;;;;;;;5017006;28;20233;-68
2021/05/04 15:42:28;;;;;;;4.05;1.60;;;;;;;;;;5032080;28;20650;-70
2021/05/04 15:44:58;;;;;;;3.00;1.30;;;;;;;;;;5016741;28;20220;-68
2021/05/04 15:47:32;;;;;;;6.22;1.65;;;;;;;;;;5027362;28;20562;-68
2021/05/04 15:50:06;;;;;;;3.28;1.20;;;;;;;;;;5016200;28;20679;-67
2021/05/04 15:55:30;;;;;;;3.75;1.63;;;;;;;;;;5032564;28;20210;-67
2021/05/04 16:03:23;;;;;;;5.10;2.00;;;;;;;;;;5034848;28;20514;-68
2021/05/04 16:06:34;;;;;;;2.25;1.40;;;;;;;;;;5025390;28;20212;-68
2021/05/04 16:09:02;;;;;;;2.78;1.38;;;;;;;;;;5033585;28;20213;-68
2021/05/04 16:11:23;;;;;;;3.65;1.20;;;;;;;;;;5028043;28;20190;-68
2021/05/04 16:13:51;;;;;;;2.13;1.23;;;;;;;;;;5029379;28;20301;-68
2021/05/04 16:16:17;;;;;;;4.85;1.67;;;;;;;;;;5018271;28;20286;-68
2021/05/04 16:18:46;;;;;;;3.92;1.58;;;;;;;;;;5028483;28;20236;-68
2021/05/04 16:26:22;;;;;;;2.55;1.80;;;;;;;;;;5019030;28;20201;-68
2021/05/04 16:31:31;;;;;;;5.45;2.10;;;;;;;;;;5022856;28;20670;-68
2021/05/04 16:33:56;;;;;;;5.93;2.60;;;;;;;;;;5031021;28;20177;-67